Time;durP1;ratioP1;P1;durP2;ratioP2;P2;SDS_P1;SDS_P2;PMS_P1;PMS_P2;Temp;Humidity;BMP_temperature;BMP_pressure;BME280_temperature;BME280_humidity;BME280_pressure;Samples;Min_cycle;Max_cycle;Signal;HPM_P1;HPM_P2
2022/10/29 00:00:21;;;;;;;17.35;4.40;;;;;;;10.15;100.00;102231.44;5072269;28;20028;-78
2022/10/29 00:02:47;;;;;;;22.05;4.45;;;;;;;10.12;100.00;102233.44;5072312;28;20052;-78
2022/10/29 00:05:12;;;;;;;12.85;4.00;;;;;;;10.05;100.00;102233.84;5071944;28;20033;-77
2022/10/29 00:07:38;;;;;;;15.50;4.47;;;;;;;10.00;100.00;102233.31;5072344;28;20063;-77
2022/10/29 00:10:04;;;;;;;10.93;3.33;;;;;;;9.92;100.00;102232.97;5071746;28;20489;-77
2022/10/29 00:12:29;;;;;;;13.18;4.13;;;;;;;9.88;100.00;102227.00;5072337;28;20487;-77
2022/10/29 00:14:54;;;;;;;9.65;4.03;;;;;;;9.79;100.00;102226.75;5071929;28;20532;-77
2022/10/29 00:17:20;;;;;;;22.90;5.05;;;;;;;9.72;100.00;102223.66;5072047;28;20047;-77
2022/10/29 00:19:45;;;;;;;16.20;5.13;;;;;;;9.64;100.00;102221.50;5071558;28;20036;-78
2022/10/29 00:22:10;;;;;;;18.15;4.90;;;;;;;9.61;100.00;102221.66;5072143;28;20036;-77
2022/10/29 00:24:36;;;;;;;20.90;4.75;;;;;;;9.57;100.00;102220.16;5072041;28;20112;-76
2022/10/29 00:27:01;;;;;;;17.13;3.90;;;;;;;9.53;100.00;102221.31;5071701;28;20060;-77
2022/10/29 00:29:26;;;;;;;12.05;4.75;;;;;;;9.55;100.00;102221.22;5072173;28;20040;-77
2022/10/29 00:31:51;;;;;;;26.58;5.60;;;;;;;9.62;100.00;102220.72;5070455;28;20083;-77
2022/10/29 00:34:17;;;;;;;26.25;6.00;;;;;;;9.68;100.00;102220.31;5072171;28;20070;-78
2022/10/29 00:36:42;;;;;;;20.67;5.63;;;;;;;9.76;100.00;102232.25;5071589;28;20098;-78
2022/10/29 00:39:13;;;;;;;23.92;5.32;;;;;;;9.84;100.00;102228.16;5054043;28;20063;-77
2022/10/29 00:41:38;;;;;;;20.63;4.95;;;;;;;9.89;100.00;102217.22;5072029;28;20028;-77
2022/10/29 00:44:13;;;;;;;21.35;5.50;;;;;;;9.93;100.00;102213.41;5070332;28;20515;-77
2022/10/29 00:46:41;;;;;;;24.65;5.22;;;;;;;9.97;100.00;102211.38;5071744;28;20377;-77
2022/10/29 00:49:07;;;;;;;21.05;4.80;;;;;;;10.02;100.00;102211.94;5071586;28;20029;-77
2022/10/29 00:51:33;;;;;;;24.13;5.53;;;;;;;10.03;100.00;102216.28;5071984;28;20473;-77
2022/10/29 00:54:03;;;;;;;21.27;4.65;;;;;;;10.05;100.00;102219.72;5071587;28;20074;-77
2022/10/29 00:56:31;;;;;;;15.70;4.05;;;;;;;10.02;100.00;102210.13;5071867;28;20473;-77
2022/10/29 00:58:57;;;;;;;14.85;4.85;;;;;;;10.02;100.00;102198.66;5071429;28;20479;-77
2022/10/29 01:01:22;;;;;;;19.70;6.05;;;;;;;10.00;100.00;102205.84;5070152;28;20037;-77
2022/10/29 01:03:48;;;;;;;16.73;4.30;;;;;;;9.92;100.00;102202.88;5071338;28;20040;-77
2022/10/29 01:06:13;;;;;;;15.70;4.38;;;;;;;9.80;100.00;102186.75;5071791;28;20055;-77
2022/10/29 01:08:39;;;;;;;12.57;4.03;;;;;;;9.71;100.00;102190.03;5071838;28;20024;-77
2022/10/29 01:11:35;;;;;;;14.38;3.97;;;;;;;9.60;100.00;102177.44;5071586;28;20396;-76
2022/10/29 01:14:39;;;;;;;14.98;4.50;;;;;;;9.52;100.00;102172.66;5059569;28;20075;-77
2022/10/29 01:17:22;;;;;;;14.82;4.88;;;;;;;9.44;100.00;102169.63;5071345;28;20067;-77
2022/10/29 01:20:11;;;;;;;10.93;4.15;;;;;;;9.32;100.00;102157.97;5071369;28;20055;-78
2022/10/29 01:23:14;;;;;;;20.58;4.82;;;;;;;9.25;100.00;102169.94;5071462;28;20024;-77
2022/10/29 01:26:01;;;;;;;12.05;3.72;;;;;;;9.21;100.00;102179.06;5071301;28;20165;-77
2022/10/29 01:28:41;;;;;;;24.65;5.35;;;;;;;9.24;100.00;102189.50;5071794;28;20080;-77
2022/10/29 01:31:09;;;;;;;23.85;5.90;;;;;;;9.27;100.00;102183.13;5071541;28;20127;-77
2022/10/29 01:33:54;;;;;;;11.50;3.85;;;;;;;9.26;100.00;102186.75;5073787;28;20526;-78
2022/10/29 01:36:47;;;;;;;14.25;4.00;;;;;;;9.22;100.00;102185.22;5074870;28;20060;-78
2022/10/29 01:39:30;;;;;;;10.68;3.97;;;;;;;9.18;100.00;102179.25;5070375;28;20097;-77
2022/10/29 01:42:09;;;;;;;13.20;3.72;;;;;;;9.16;100.00;102173.19;5074515;28;20028;-78
2022/10/29 01:44:42;;;;;;;13.15;4.15;;;;;;;9.13;100.00;102165.41;5075132;28;20028;-78
2022/10/29 01:47:30;;;;;;;11.02;3.88;;;;;;;9.07;100.00;102161.34;5074455;28;20573;-77
2022/10/29 01:50:06;;;;;;;6.55;3.08;;;;;;;9.03;100.00;102156.31;5074338;28;20103;-80
2022/10/29 01:52:34;;;;;;;14.63;4.60;;;;;;;9.00;100.00;102154.72;5074894;28;20449;-77
2022/10/29 01:55:01;;;;;;;7.13;3.97;;;;;;;8.97;100.00;102152.25;5074324;28;20020;-78
2022/10/29 01:57:37;;;;;;;11.15;3.20;;;;;;;8.91;100.00;102147.31;5074640;28;20039;-78
2022/10/29 02:00:14;;;;;;;7.57;3.58;;;;;;;8.88;100.00;102152.81;5073889;28;20033;-76
2022/10/29 02:03:08;;;;;;;16.35;4.68;;;;;;;8.85;100.00;102147.72;5073429;28;20461;-78
2022/10/29 02:05:38;;;;;;;10.13;3.95;;;;;;;8.76;100.00;102157.09;5074617;28;20029;-76
2022/10/29 02:08:03;;;;;;;13.27;4.30;;;;;;;8.72;100.00;102155.56;5074162;28;20037;-77
2022/10/29 02:10:47;;;;;;;13.02;3.97;;;;;;;8.74;100.00;102153.69;5074162;28;20071;-78
2022/10/29 02:13:16;;;;;;;9.77;3.60;;;;;;;8.76;100.00;102159.75;5073850;28;20564;-77
2022/10/29 02:15:47;;;;;;;8.82;4.15;;;;;;;8.83;100.00;102155.78;5074220;28;20036;-76
2022/10/29 02:18:13;;;;;;;11.80;4.78;;;;;;;8.94;100.00;102140.03;5073935;28;20024;-77
2022/10/29 02:20:42;;;;;;;15.60;4.60;;;;;;;9.07;100.00;102139.25;5074297;28;20044;-77
2022/10/29 02:23:09;;;;;;;14.30;4.68;;;;;;;9.15;100.00;102132.50;5073853;28;20055;-77
2022/10/29 02:25:34;;;;;;;16.00;5.13;;;;;;;9.21;100.00;102131.28;5073517;28;20048;-78
2022/10/29 02:27:59;;;;;;;14.60;4.55;;;;;;;9.26;100.00;102129.16;5073639;28;20043;-78
2022/10/29 02:30:25;;;;;;;16.17;5.00;;;;;;;9.30;100.00;102121.84;5074023;28;20446;-78
2022/10/29 02:32:50;;;;;;;11.00;4.05;;;;;;;9.35;100.00;102127.72;5073776;28;20037;-78
2022/10/29 02:35:15;;;;;;;11.48;4.18;;;;;;;9.42;100.00;102134.34;5073491;28;20040;-79
2022/10/29 02:37:41;;;;;;;14.27;4.53;;;;;;;9.50;100.00;102124.03;5074090;28;20033;-78
2022/10/29 02:40:07;;;;;;;15.23;3.97;;;;;;;9.57;100.00;102124.50;5073464;28;20063;-77
2022/10/29 02:42:32;;;;;;;16.98;4.78;;;;;;;9.64;100.00;102124.94;5074116;28;20029;-77
2022/10/29 02:44:57;;;;;;;19.58;5.50;;;;;;;9.68;100.00;102123.78;5073452;28;20041;-78
2022/10/29 02:47:23;;;;;;;18.35;5.55;;;;;;;9.70;100.00;102111.25;5074395;28;20029;-78
2022/10/29 02:49:48;;;;;;;13.13;4.75;;;;;;;9.70;100.00;102117.44;5073702;28;20532;-77
2022/10/29 02:52:13;;;;;;;12.55;4.20;;;;;;;9.74;100.00;102114.56;5073292;28;20051;-78
2022/10/29 02:54:39;;;;;;;21.45;6.15;;;;;;;9.79;100.00;102115.09;5073776;28;20033;-77
2022/10/29 02:57:05;;;;;;;23.63;5.13;;;;;;;9.82;100.00;102114.88;5073277;28;20059;-77
2022/10/29 02:59:30;;;;;;;22.65;6.03;;;;;;;9.85;100.00;102114.69;5073464;28;20036;-78
2022/10/29 03:01:55;;;;;;;18.23;4.72;;;;;;;9.90;100.00;102120.56;5073466;28;20032;-77
2022/10/29 03:04:21;;;;;;;19.35;5.30;;;;;;;9.94;100.00;102113.22;5072827;28;20119;-77
2022/10/29 03:06:46;;;;;;;12.82;5.03;;;;;;;9.93;100.00;102116.81;5073132;28;20039;-77
2022/10/29 03:09:12;;;;;;;15.18;5.28;;;;;;;9.92;100.00;102121.28;5073162;28;20036;-77
2022/10/29 03:11:37;;;;;;;20.33;5.55;;;;;;;9.93;100.00;102124.78;5073091;28;20530;-78
2022/10/29 03:14:02;;;;;;;17.98;5.45;;;;;;;9.94;100.00;102123.84;5071694;28;20469;-78
2022/10/29 03:16:28;;;;;;;24.67;6.72;;;;;;;10.00;100.00;102124.31;5073428;28;20391;-77
2022/10/29 03:18:53;;;;;;;14.48;5.10;;;;;;;10.07;100.00;102119.41;5074216;28;20029;-77
2022/10/29 03:21:18;;;;;;;23.60;5.95;;;;;;;10.12;100.00;102109.31;5072537;28;20393;-78
2022/10/29 03:23:44;;;;;;;18.48;6.32;;;;;;;10.20;100.00;102106.13;5073137;28;20119;-78
2022/10/29 03:26:09;;;;;;;24.80;7.07;;;;;;;10.27;100.00;102099.44;5072354;28;20060;-77
2022/10/29 03:28:35;;;;;;;25.33;7.43;;;;;;;10.31;100.00;102097.41;5072825;28;20036;-77
2022/10/29 03:31:00;;;;;;;22.70;6.80;;;;;;;10.34;100.00;102095.41;5073010;28;20126;-78
2022/10/29 03:33:26;;;;;;;22.02;7.38;;;;;;;10.36;100.00;102095.28;5072350;28;20064;-77
2022/10/29 03:35:59;;;;;;;26.42;6.93;;;;;;;10.33;100.00;102095.47;5072929;28;20079;-77
2022/10/29 03:38:25;;;;;;;26.33;7.20;;;;;;;10.32;100.00;102093.78;5071181;28;20032;-79
2022/10/29 03:40:50;;;;;;;20.85;7.43;;;;;;;10.26;100.00;102097.72;5072808;28;20048;-78
2022/10/29 03:43:16;;;;;;;26.65;7.18;;;;;;;10.23;100.00;102096.13;5071048;28;20058;-79
2022/10/29 03:45:42;;;;;;;26.30;7.13;;;;;;;10.20;100.00;102093.66;5072576;28;20404;-77
2022/10/29 03:48:07;;;;;;;28.38;7.15;;;;;;;10.19;100.00;102086.63;5070847;28;20028;-78
2022/10/29 03:50:33;;;;;;;23.52;6.70;;;;;;;10.18;100.00;102084.97;5072743;28;20434;-78
2022/10/29 03:53:01;;;;;;;20.27;6.45;;;;;;;10.19;100.00;102083.97;5072257;28;20548;-79
2022/10/29 03:55:28;;;;;;;27.75;7.20;;;;;;;10.20;100.00;102082.19;5071658;28;20101;-78
2022/10/29 03:57:53;;;;;;;19.70;6.90;;;;;;;10.18;100.00;102082.31;5071069;28;20503;-78
2022/10/29 04:00:19;;;;;;;18.90;6.70;;;;;;;10.20;100.00;102085.69;5072171;28;20111;-78
2022/10/29 04:02:44;;;;;;;21.95;6.97;;;;;;;10.21;100.00;102082.09;5072295;28;20040;-79
2022/10/29 04:05:09;;;;;;;22.35;7.00;;;;;;;10.21;100.00;102089.19;5071905;28;20029;-78
2022/10/29 04:07:35;;;;;;;19.00;6.38;;;;;;;10.21;100.00;102087.41;5072560;28;20052;-78
2022/10/29 04:10:00;;;;;;;21.63;7.00;;;;;;;10.24;100.00;102092.50;5072338;28;20089;-78
2022/10/29 04:12:26;;;;;;;21.27;6.55;;;;;;;10.27;100.00;102085.25;5070517;28;20580;-78
2022/10/29 04:14:51;;;;;;;23.42;6.90;;;;;;;10.24;100.00;102078.38;5070920;28;20032;-77
2022/10/29 04:17:16;;;;;;;25.58;6.22;;;;;;;10.27;100.00;102087.91;5071906;28;20119;-77
2022/10/29 04:19:42;;;;;;;26.15;6.63;;;;;;;10.28;100.00;102084.31;5072199;28;20375;-77
2022/10/29 04:22:07;;;;;;;18.83;6.60;;;;;;;10.29;100.00;102088.69;5071798;28;20469;-77
2022/10/29 04:24:32;;;;;;;16.73;6.32;;;;;;;10.27;100.00;102070.16;5070450;28;20033;-77
2022/10/29 04:26:58;;;;;;;20.88;7.07;;;;;;;10.32;100.00;102075.16;5072509;28;20061;-78
2022/10/29 04:29:23;;;;;;;17.75;7.15;;;;;;;10.34;100.00;102075.94;5071794;28;20400;-77
2022/10/29 04:31:49;;;;;;;21.65;6.68;;;;;;;10.39;100.00;102069.34;5072165;28;20483;-77
2022/10/29 04:34:14;;;;;;;21.70;7.25;;;;;;;10.41;100.00;102078.06;5071995;28;20040;-78
2022/10/29 04:36:39;;;;;;;17.70;6.65;;;;;;;10.44;100.00;102076.16;5071868;28;20032;-77
2022/10/29 04:39:05;;;;;;;20.55;6.53;;;;;;;10.42;100.00;102073.59;5072051;28;20037;-77
2022/10/29 04:41:30;;;;;;;17.90;6.78;;;;;;;10.43;100.00;102069.13;5071735;28;20037;-78
2022/10/29 04:43:55;;;;;;;20.33;6.90;;;;;;;10.42;100.00;102065.63;5072018;28;20041;-78
2022/10/29 04:46:21;;;;;;;22.77;7.28;;;;;;;10.42;100.00;102062.97;5071462;28;20036;-78
2022/10/29 04:48:46;;;;;;;22.35;7.68;;;;;;;10.41;100.00;102063.91;5071930;28;20183;-78
2022/10/29 04:51:20;;;;;;;20.98;7.57;;;;;;;10.39;100.00;102064.00;5071100;28;20024;-79
2022/10/29 04:53:45;;;;;;;24.95;7.82;;;;;;;10.38;100.00;102064.13;5071687;28;20388;-78
2022/10/29 04:56:10;;;;;;;19.88;7.65;;;;;;;10.35;100.00;102059.88;5071648;28;20036;-77
2022/10/29 04:58:36;;;;;;;19.00;7.82;;;;;;;10.35;100.00;102067.00;5071306;28;20068;-78
2022/10/29 05:01:03;;;;;;;19.80;7.35;;;;;;;10.34;100.00;102063.47;5071786;28;20044;-77
2022/10/29 05:03:29;;;;;;;20.77;7.50;;;;;;;10.33;100.00;102074.19;5071353;28;20037;-77
2022/10/29 05:05:54;;;;;;;20.80;8.07;;;;;;;10.33;100.00;102063.56;5071792;28;20139;-77
2022/10/29 05:08:20;;;;;;;21.98;7.38;;;;;;;10.32;100.00;102059.22;5073190;28;20484;-78
2022/10/29 05:10:45;;;;;;;21.38;6.93;;;;;;;10.32;100.00;102057.38;5075545;28;20111;-77
2022/10/29 05:13:11;;;;;;;24.27;7.72;;;;;;;10.32;100.00;102049.41;5075601;28;20040;-78
2022/10/29 05:15:38;;;;;;;21.25;7.47;;;;;;;10.32;100.00;102045.91;5073765;28;20032;-77
2022/10/29 05:18:04;;;;;;;16.33;7.15;;;;;;;10.32;100.00;102035.25;5075366;28;20029;-77
2022/10/29 05:20:29;;;;;;;19.45;7.25;;;;;;;10.32;100.00;102032.59;5075133;28;20035;-77
2022/10/29 05:23:04;;;;;;;22.80;7.28;;;;;;;10.33;100.00;102035.19;5074993;28;20075;-77
2022/10/29 05:25:31;;;;;;;22.33;7.53;;;;;;;10.33;100.00;102029.88;5074535;28;20137;-77
2022/10/29 05:28:03;;;;;;;20.52;7.30;;;;;;;10.33;100.00;102021.88;5075523;28;20465;-76
2022/10/29 05:30:29;;;;;;;17.98;7.38;;;;;;;10.36;100.00;102019.00;5075148;28;20091;-76
2022/10/29 05:32:55;;;;;;;20.85;7.93;;;;;;;10.40;100.00;102019.63;5075180;28;20039;-77
2022/10/29 05:35:20;;;;;;;19.05;7.20;;;;;;;10.43;100.00;102026.53;5074515;28;20041;-77
2022/10/29 05:37:53;;;;;;;20.67;7.97;;;;;;;10.44;100.00;102022.94;5075364;28;20032;-77
2022/10/29 05:40:19;;;;;;;16.52;7.30;;;;;;;10.47;100.00;102026.22;5074645;28;20499;-78
2022/10/29 05:42:44;;;;;;;22.42;7.50;;;;;;;10.49;100.00;102032.28;5074931;28;20078;-77
2022/10/29 05:45:10;;;;;;;21.42;7.75;;;;;;;10.51;100.00;102038.34;5075093;28;20037;-76
2022/10/29 05:47:35;;;;;;;17.95;7.38;;;;;;;10.53;100.00;102039.09;5074583;28;20532;-76
2022/10/29 05:50:01;;;;;;;17.85;7.50;;;;;;;10.54;100.00;102031.97;5074837;28;20063;-76
2022/10/29 05:52:26;;;;;;;22.17;7.85;;;;;;;10.53;100.00;102036.41;5074528;28;20036;-76
2022/10/29 05:54:52;;;;;;;23.27;8.07;;;;;;;10.54;100.00;102030.16;5074778;28;20036;-76
2022/10/29 05:57:17;;;;;;;21.00;8.15;;;;;;;10.52;100.00;102018.75;5074948;28;20457;-77
2022/10/29 05:59:42;;;;;;;20.45;7.78;;;;;;;10.53;100.00;102023.13;5074274;28;20111;-77
2022/10/29 06:02:09;;;;;;;19.98;7.70;;;;;;;10.52;100.00;102023.22;5073310;28;20025;-76
2022/10/29 06:04:34;;;;;;;20.48;8.32;;;;;;;10.46;100.00;102021.84;5074185;28;20043;-76
2022/10/29 06:07:00;;;;;;;21.45;8.13;;;;;;;10.41;100.00;102024.00;5073383;28;20032;-76
2022/10/29 06:09:25;;;;;;;18.55;7.57;;;;;;;10.36;100.00;102020.78;5074346;28;20461;-76
2022/10/29 06:11:51;;;;;;;18.85;7.95;;;;;;;10.35;100.00;102013.78;5075037;28;20461;-76
2022/10/29 06:14:16;;;;;;;23.25;8.15;;;;;;;10.35;100.00;102011.13;5074684;28;20078;-77
2022/10/29 06:16:41;;;;;;;16.85;7.55;;;;;;;10.38;100.00;102016.22;5074008;28;20167;-77
2022/10/29 06:19:07;;;;;;;20.67;8.55;;;;;;;10.41;100.00;102016.84;5073764;28;20082;-77
2022/10/29 06:21:33;;;;;;;22.02;8.30;;;;;;;10.45;100.00;102012.19;5074135;28;20028;-76
2022/10/29 06:23:58;;;;;;;21.38;8.55;;;;;;;10.46;100.00;102008.53;5074224;28;20077;-76
2022/10/29 06:26:24;;;;;;;18.67;8.27;;;;;;;10.50;100.00;102010.03;5073623;28;20488;-77
2022/10/29 06:28:49;;;;;;;22.83;8.30;;;;;;;10.52;100.00;102008.09;5072791;28;20063;-76
2022/10/29 06:31:15;;;;;;;19.83;8.40;;;;;;;10.53;100.00;101998.31;5074238;28;20192;-76
2022/10/29 06:33:40;;;;;;;18.75;8.38;;;;;;;10.54;100.00;102000.03;5073566;28;20449;-77
2022/10/29 06:36:05;;;;;;;22.33;8.52;;;;;;;10.56;100.00;101996.28;5073922;28;20425;-77
2022/10/29 06:38:31;;;;;;;21.60;8.43;;;;;;;10.58;100.00;101998.81;5057544;28;20501;-77
2022/10/29 06:40:56;;;;;;;17.83;8.07;;;;;;;10.60;100.00;102007.56;5053778;28;20108;-79
2022/10/29 06:43:22;;;;;;;20.67;8.48;;;;;;;10.62;100.00;102002.97;5053883;28;20422;-77
2022/10/29 06:45:51;;;;;;;19.35;8.52;;;;;;;10.64;100.00;102019.69;5053436;28;20120;-77
2022/10/29 06:48:17;;;;;;;17.98;8.65;;;;;;;10.66;100.00;102007.13;5053680;28;20039;-77
2022/10/29 06:50:42;;;;;;;24.10;8.95;;;;;;;10.69;100.00;102008.69;5053543;28;20116;-79
2022/10/29 06:53:11;;;;;;;20.67;8.80;;;;;;;10.70;100.00;101999.75;5053951;28;20033;-77
2022/10/29 06:55:36;;;;;;;26.95;9.45;;;;;;;10.72;100.00;101993.38;5053253;28;20457;-77
2022/10/29 06:58:05;;;;;;;20.75;9.13;;;;;;;10.74;100.00;101988.78;5053767;28;20082;-77
2022/10/29 07:00:31;;;;;;;20.58;9.32;;;;;;;10.78;100.00;101994.72;5053029;28;20472;-78
2022/10/29 07:02:57;;;;;;;20.60;9.80;;;;;;;10.81;100.00;101994.50;5053725;28;20033;-77
2022/10/29 07:05:23;;;;;;;21.77;9.45;;;;;;;10.86;100.00;101997.66;5053457;28;20037;-77
2022/10/29 07:07:48;;;;;;;20.60;8.90;;;;;;;10.89;100.00;101977.97;5053331;28;20461;-77
2022/10/29 07:10:15;;;;;;;22.52;10.20;;;;;;;10.92;100.00;101962.59;5053893;28;20037;-77
2022/10/29 07:12:41;;;;;;;26.00;10.48;;;;;;;10.94;100.00;101968.69;5052961;28;20025;-76
2022/10/29 07:15:07;;;;;;;22.02;9.93;;;;;;;10.98;100.00;101971.94;5053705;28;20040;-76
2022/10/29 07:17:33;;;;;;;22.88;10.43;;;;;;;11.03;100.00;101998.25;5053016;28;20029;-75
2022/10/29 07:19:58;;;;;;;28.75;11.27;;;;;;;11.07;100.00;101997.06;5053437;28;20112;-75
2022/10/29 07:22:23;;;;;;;24.13;11.00;;;;;;;11.14;100.00;101998.31;5052995;28;20104;-76
2022/10/29 07:24:49;;;;;;;26.60;11.38;;;;;;;11.22;100.00;101992.41;5052682;28;20112;-78
2022/10/29 07:27:14;;;;;;;26.25;12.57;;;;;;;11.28;100.00;101989.25;5052901;28;20056;-77
2022/10/29 07:29:39;;;;;;;30.38;14.02;;;;;;;11.37;100.00;101987.72;5051322;28;20033;-77
2022/10/29 07:32:05;;;;;;;32.00;14.57;;;;;;;11.43;100.00;101976.59;5051396;28;20048;-77
2022/10/29 07:34:30;;;;;;;35.30;15.20;;;;;;;11.51;100.00;101979.53;5052408;28;20037;-79
2022/10/29 07:36:56;;;;;;;36.22;15.80;;;;;;;11.61;100.00;101971.66;5053384;28;20040;-77
2022/10/29 07:39:21;;;;;;;40.38;17.17;;;;;;;11.72;100.00;101965.50;5052643;28;20047;-77
2022/10/29 07:41:46;;;;;;;38.97;16.10;;;;;;;11.87;100.00;101960.78;5052310;28;20109;-77
2022/10/29 07:44:12;;;;;;;40.08;17.25;;;;;;;12.01;100.00;101962.44;5053008;28;20357;-76
2022/10/29 07:46:37;;;;;;;42.83;17.10;;;;;;;12.14;100.00;101960.47;5052292;28;20033;-77
2022/10/29 07:49:03;;;;;;;39.40;17.90;;;;;;;12.27;100.00;101965.66;5052667;28;20065;-76
2022/10/29 07:51:28;;;;;;;39.00;17.63;;;;;;;12.45;100.00;101964.22;5052846;28;20055;-77
2022/10/29 07:53:53;;;;;;;36.40;16.23;;;;;;;12.61;100.00;101976.31;5051825;28;20086;-77
2022/10/29 07:56:19;;;;;;;38.20;16.42;;;;;;;12.67;100.00;101981.13;5051457;28;20477;-77
2022/10/29 07:58:44;;;;;;;40.17;16.30;;;;;;;12.73;100.00;101985.97;5052322;28;20021;-76
2022/10/29 08:01:09;;;;;;;34.95;15.05;;;;;;;12.80;100.00;101979.16;5052444;28;20075;-78
2022/10/29 08:03:36;;;;;;;30.98;14.93;;;;;;;12.86;100.00;101978.66;5047707;28;20029;-79
2022/10/29 08:06:01;;;;;;;28.48;13.52;;;;;;;12.91;100.00;101970.25;5049684;28;20477;-78
2022/10/29 08:08:27;;;;;;;33.28;14.95;;;;;;;12.94;100.00;101978.03;5049568;28;20040;-78
2022/10/29 08:10:52;;;;;;;33.33;13.98;;;;;;;12.98;100.00;101965.28;5049531;28;20082;-76
2022/10/29 08:13:17;;;;;;;29.45;13.82;;;;;;;12.96;100.00;101960.06;5049579;28;20393;-78
2022/10/29 08:15:45;;;;;;;38.90;13.93;;;;;;;12.94;100.00;101969.16;5049168;28;20037;-75
2022/10/29 08:18:14;;;;;;;34.05;14.27;;;;;;;12.93;100.00;101970.13;5049501;28;20029;-76
2022/10/29 08:20:40;;;;;;;32.80;13.82;;;;;;;12.90;100.00;101968.59;5047288;28;20334;-76
2022/10/29 08:23:05;;;;;;;29.15;13.85;;;;;;;12.95;100.00;101969.03;5049560;28;20123;-78
2022/10/29 08:25:31;;;;;;;29.00;14.68;;;;;;;13.05;100.00;101971.81;5048871;28;20174;-78
2022/10/29 08:28:00;;;;;;;32.20;13.57;;;;;;;13.17;100.00;101976.13;5046825;28;20519;-78
2022/10/29 08:30:25;;;;;;;34.47;14.50;;;;;;;13.26;100.00;101987.88;5045518;28;20017;-78
2022/10/29 08:32:51;;;;;;;30.13;13.98;;;;;;;13.30;100.00;101980.44;5051334;28;20041;-77
2022/10/29 08:35:16;;;;;;;30.55;13.80;;;;;;;13.37;100.00;101979.81;5051998;28;20385;-77
2022/10/29 08:37:42;;;;;;;35.63;14.13;;;;;;;13.55;100.00;101971.22;5051628;28;20415;-76
2022/10/29 08:40:17;;;;;;;31.17;13.77;;;;;;;13.72;100.00;101975.13;5051874;28;20485;-75
2022/10/29 08:43:10;;;;;;;32.92;13.75;;;;;;;13.80;100.00;101969.97;5054135;28;20097;-76
2022/10/29 08:45:54;;;;;;;28.38;14.10;;;;;;;13.78;100.00;101955.00;5056064;28;20088;-75
2022/10/29 08:48:37;;;;;;;26.67;12.00;;;;;;;13.83;100.00;101958.16;5056134;28;20086;-77
2022/10/29 08:51:35;;;;;;;32.35;13.48;;;;;;;13.92;100.00;101949.31;5055660;28;20033;-74
2022/10/29 08:54:01;;;;;;;24.52;12.77;;;;;;;14.01;100.00;101940.47;5054162;28;20025;-72
2022/10/29 08:56:33;;;;;;;24.35;12.77;;;;;;;14.11;100.00;101945.88;5054733;28;20351;-76
2022/10/29 08:59:20;;;;;;;26.42;12.73;;;;;;;14.20;100.00;101942.38;5056455;28;20024;-75
2022/10/29 09:01:46;;;;;;;25.17;13.30;;;;;;;14.28;100.00;101936.34;5055919;28;20041;-74
2022/10/29 09:04:23;;;;;;;28.10;12.38;;;;;;;14.34;100.00;101926.94;5057392;28;20094;-76
2022/10/29 09:07:13;;;;;;;23.05;12.07;;;;;;;14.39;100.00;101927.34;5056090;28;20056;-75
2022/10/29 09:09:44;;;;;;;23.90;13.98;;;;;;;14.43;100.00;101926.94;5056509;28;20032;-76
2022/10/29 09:12:10;;;;;;;;;;;;;;;14.46;100.00;101926.69;5056240;28;20060;-76
2022/10/29 09:15:02;;;;;;;21.20;11.70;;;;;;;14.52;100.00;101921.75;5054602;28;19943;-77
2022/10/29 09:17:32;;;;;;;23.83;12.35;;;;;;;14.46;100.00;101917.78;5055839;28;20275;-75
2022/10/29 09:20:42;;;;;;;21.10;11.40;;;;;;;14.45;100.00;101908.03;5055381;28;20028;-76
2022/10/29 09:23:27;;;;;;;19.17;10.75;;;;;;;14.48;100.00;101905.13;5055016;28;20017;-75
2022/10/29 09:26:01;;;;;;;18.35;11.57;;;;;;;14.51;100.00;101888.78;5054583;28;20053;-77
2022/10/29 09:28:32;;;;;;;20.85;11.68;;;;;;;14.56;100.00;101885.69;5055378;28;20448;-75
2022/10/29 09:31:12;;;;;;;21.05;11.43;;;;;;;14.65;100.00;101876.00;5056497;28;20040;-74
2022/10/29 09:33:38;;;;;;;22.33;10.88;;;;;;;14.74;100.00;101873.28;5055835;28;20028;-75
2022/10/29 09:36:13;;;;;;;18.77;10.32;;;;;;;14.81;100.00;101865.56;5053886;28;20036;-78
2022/10/29 09:38:52;;;;;;;25.75;11.15;;;;;;;14.90;100.00;101871.88;5055483;28;20059;-77
2022/10/29 09:41:21;;;;;;;23.85;11.25;;;;;;;15.07;100.00;101875.69;5055458;28;20049;-77
2022/10/29 09:44:00;;;;;;;21.77;11.32;;;;;;;15.30;100.00;101873.50;5054878;28;20484;-81
2022/10/29 09:46:47;;;;;;;17.95;9.77;;;;;;;15.60;100.00;101874.25;5055252;28;20024;-75
2022/10/29 09:49:31;;;;;;;19.20;9.57;;;;;;;16.14;100.00;101885.22;5055087;28;20054;-76
2022/10/29 09:52:22;;;;;;;20.35;9.38;;;;;;;16.48;100.00;101866.59;5054630;28;20389;-77
2022/10/29 09:54:49;;;;;;;17.65;9.60;;;;;;;16.61;100.00;101860.00;5053989;28;20103;-79
2022/10/29 09:57:24;;;;;;;25.95;9.10;;;;;;;17.16;100.00;101857.09;5055048;28;20033;-78
2022/10/29 09:59:55;;;;;;;16.35;7.78;;;;;;;17.81;100.00;101855.78;5055011;28;20480;-76
2022/10/29 10:02:33;;;;;;;20.42;9.00;;;;;;;18.09;100.00;101853.72;5055123;28;20028;-78
2022/10/29 10:05:10;;;;;;;20.75;9.20;;;;;;;18.04;100.00;101853.34;5054400;28;20484;-76
2022/10/29 10:07:36;;;;;;;25.55;9.00;;;;;;;18.09;100.00;101867.19;5054632;28;20025;-75
2022/10/29 10:10:04;;;;;;;20.80;9.50;;;;;;;17.84;100.00;101860.84;5054390;28;20477;-77
2022/10/29 10:12:35;;;;;;;23.73;8.90;;;;;;;17.88;100.00;101848.72;5054782;28;20033;-78
2022/10/29 10:15:01;;;;;;;;;;;;;;;18.01;100.00;101834.84;5054325;28;20033;-75
2022/10/29 10:17:27;;;;;;;26.25;9.10;;;;;;;18.31;100.00;101835.25;5054541;28;19913;-77
2022/10/29 10:19:52;;;;;;;22.80;8.98;;;;;;;18.31;100.00;101833.38;5054406;28;20082;-80
2022/10/29 10:22:21;;;;;;;20.20;8.05;;;;;;;18.36;100.00;101832.88;5054615;28;20029;-78
2022/10/29 10:24:46;;;;;;;17.38;8.57;;;;;;;18.28;100.00;101840.97;5054720;28;20450;-78
2022/10/29 10:27:17;;;;;;;21.15;8.30;;;;;;;18.31;100.00;101836.06;5053758;28;20139;-79
2022/10/29 10:30:03;;;;;;;19.13;8.02;;;;;;;18.26;100.00;101832.22;5054370;28;20385;-79
2022/10/29 10:32:29;;;;;;;23.63;7.82;;;;;;;18.14;100.00;101831.69;5054254;28;20040;-79
2022/10/29 10:34:54;;;;;;;17.48;7.22;;;;;;;18.10;100.00;101831.16;5053524;28;20033;-79
2022/10/29 10:37:20;;;;;;;15.77;6.82;;;;;;;18.11;100.00;101837.41;5054121;28;20465;-79
2022/10/29 10:39:57;;;;;;;23.40;7.15;;;;;;;18.18;100.00;101841.09;5054306;28;20037;-77
2022/10/29 10:42:35;;;;;;;19.23;7.35;;;;;;;18.22;100.00;101847.00;5054293;28;20039;-78
2022/10/29 10:45:22;;;;;;;15.15;6.50;;;;;;;18.21;100.00;101846.16;5052413;28;20029;-76
2022/10/29 10:47:54;;;;;;;16.27;6.15;;;;;;;18.33;100.00;101854.75;5053574;28;20041;-77
2022/10/29 10:50:26;;;;;;;16.98;6.60;;;;;;;18.50;100.00;101847.56;5053459;28;20064;-74
2022/10/29 10:52:53;;;;;;;14.88;6.38;;;;;;;18.74;100.00;101845.91;5053468;28;20087;-78
2022/10/29 10:55:23;;;;;;;13.35;6.18;;;;;;;18.78;100.00;101836.44;5053810;28;20044;-76
2022/10/29 10:57:57;;;;;;;13.95;6.07;;;;;;;18.76;100.00;101838.47;5053227;28;20485;-77
2022/10/29 11:00:23;;;;;;;17.80;6.65;;;;;;;18.67;100.00;101826.84;5053714;28;20021;-76
2022/10/29 11:03:07;;;;;;;15.20;6.05;;;;;;;18.53;100.00;101822.97;5053369;28;20029;-75
2022/10/29 11:05:41;;;;;;;16.40;6.22;;;;;;;18.58;100.00;101823.28;5052200;28;20036;-77
2022/10/29 11:08:25;;;;;;;14.15;6.20;;;;;;;18.58;100.00;101815.22;5053060;28;20115;-77
2022/10/29 11:11:06;;;;;;;19.88;5.93;;;;;;;18.60;100.00;101813.22;5053432;28;20021;-78
2022/10/29 11:13:33;;;;;;;15.50;6.47;;;;;;;18.72;100.00;101816.41;5053304;28;20033;-78
2022/10/29 11:16:30;;;;;;;14.02;5.57;;;;;;;18.82;100.00;101811.69;5052768;28;20474;-76
2022/10/29 11:19:17;;;;;;;24.45;6.20;;;;;;;19.10;100.00;101805.94;5053624;28;20074;-77